Time;durP1;ratioP1;P1;durP2;ratioP2;P2;SDS_P1;SDS_P2;PMS_P1;PMS_P2;Temp;Humidity;BMP_temperature;BMP_pressure;BME280_temperature;BME280_humidity;BME280_pressure;Samples;Min_cycle;Max_cycle;Signal;HPM_P1;HPM_P2
2023/12/05 00:01:15;;;;;;;0.80;0.80;;;5.70;68.80;;;;;;5011305;28;20042;-74
2023/12/05 00:03:41;;;;;;;1.52;1.42;;;5.70;68.90;;;;;;5001592;28;20030;-74
2023/12/05 00:06:10;;;;;;;0.50;0.50;;;5.70;68.80;;;;;;4993058;28;20501;-75
2023/12/05 00:08:36;;;;;;;0.82;0.82;;;5.70;68.80;;;;;;5004718;28;20065;-75
2023/12/05 00:11:06;;;;;;;0.55;0.55;;;5.70;68.90;;;;;;4980454;28;20057;-74
2023/12/05 00:13:32;;;;;;;0.50;0.50;;;5.70;68.90;;;;;;5003446;28;20538;-74
2023/12/05 00:15:57;;;;;;;1.17;1.15;;;5.70;68.80;;;;;;5010767;28;20030;-73
2023/12/05 00:18:24;;;;;;;0.52;0.52;;;5.70;68.80;;;;;;4992284;28;20505;-73
2023/12/05 00:20:50;;;;;;;0.57;0.57;;;5.70;68.80;;;;;;4991124;28;20026;-74
2023/12/05 00:23:16;;;;;;;0.40;0.40;;;5.70;68.90;;;;;;4991118;28;20026;-73
2023/12/05 00:25:41;;;;;;;0.77;0.77;;;5.70;68.90;;;;;;4991157;28;20386;-75
2023/12/05 00:28:07;;;;;;;2.08;1.60;;;5.70;68.90;;;;;;4991539;28;20041;-75
2023/12/05 00:30:32;;;;;;;0.65;0.65;;;5.60;68.90;;;;;;4999202;28;20062;-75
2023/12/05 00:32:57;;;;;;;0.57;0.57;;;5.70;68.90;;;;;;5012915;28;20030;-75
2023/12/05 00:35:24;;;;;;;0.60;0.60;;;5.70;69.00;;;;;;5013179;28;20025;-74
2023/12/05 00:37:49;;;;;;;0.90;0.90;;;5.70;69.00;;;;;;5009298;28;20051;-75
2023/12/05 00:40:15;;;;;;;0.60;0.60;;;5.70;69.00;;;;;;4994655;28;20038;-75
2023/12/05 00:42:41;;;;;;;0.50;0.50;;;5.70;69.00;;;;;;5005720;28;20121;-75
2023/12/05 00:45:07;;;;;;;0.65;0.65;;;5.70;69.10;;;;;;4996472;28;20474;-75
2023/12/05 00:47:32;;;;;;;0.93;0.93;;;5.70;69.00;;;;;;4996384;28;20092;-75
2023/12/05 00:49:58;;;;;;;0.85;0.85;;;5.70;69.00;;;;;;5014214;28;20018;-75
2023/12/05 00:52:23;;;;;;;0.50;0.50;;;5.70;69.10;;;;;;5014454;28;20030;-76
2023/12/05 00:54:49;;;;;;;0.75;0.75;;;5.60;69.10;;;;;;5003346;28;20085;-75
2023/12/05 00:57:14;;;;;;;0.60;0.60;;;5.70;69.20;;;;;;4994432;28;20080;-76
2023/12/05 00:59:40;;;;;;;0.55;0.55;;;5.70;69.10;;;;;;4994154;28;20050;-76
2023/12/05 01:02:05;;;;;;;0.50;0.50;;;5.70;69.10;;;;;;4994478;28;20034;-76
2023/12/05 01:04:31;;;;;;;0.80;0.80;;;5.70;69.20;;;;;;4976965;28;20026;-76
2023/12/05 01:06:56;;;;;;;0.65;0.65;;;5.70;69.20;;;;;;4994196;28;20050;-76
2023/12/05 01:09:22;;;;;;;0.70;0.70;;;5.70;69.10;;;;;;4994357;28;20038;-76
2023/12/05 01:11:47;;;;;;;0.68;0.68;;;5.70;69.10;;;;;;4994240;28;20388;-76
2023/12/05 01:14:13;;;;;;;0.50;0.50;;;5.70;69.00;;;;;;4994093;28;20031;-77
2023/12/05 01:16:43;;;;;;;0.47;0.47;;;5.80;69.10;;;;;;4994093;28;20497;-76
2023/12/05 01:19:09;;;;;;;1.47;0.70;;;5.80;69.10;;;;;;4994052;28;20121;-76
2023/12/05 01:21:34;;;;;;;1.02;1.02;;;5.80;69.10;;;;;;4994199;28;20125;-77
2023/12/05 01:24:00;;;;;;;0.50;0.50;;;5.80;69.10;;;;;;5000477;28;20045;-77
2023/12/05 01:26:25;;;;;;;0.80;0.80;;;5.80;69.00;;;;;;5012922;28;20057;-77
2023/12/05 01:28:51;;;;;;;0.50;0.50;;;5.80;69.10;;;;;;4995511;28;20550;-77
2023/12/05 01:31:16;;;;;;;0.50;0.50;;;5.80;69.00;;;;;;5013338;28;20066;-77
2023/12/05 01:33:42;;;;;;;0.60;0.60;;;5.80;69.10;;;;;;4999538;28;20026;-77
2023/12/05 01:36:11;;;;;;;0.63;0.63;;;5.80;69.00;;;;;;5003196;28;20031;-77
2023/12/05 01:38:37;;;;;;;0.60;0.60;;;5.80;69.00;;;;;;4993351;28;20073;-77
2023/12/05 01:41:02;;;;;;;0.60;0.60;;;5.80;69.10;;;;;;5010481;28;20037;-77
2023/12/05 01:43:28;;;;;;;1.33;1.25;;;5.80;69.00;;;;;;5012360;28;20026;-77
2023/12/05 01:45:55;;;;;;;0.50;0.50;;;5.90;69.00;;;;;;5012523;28;20037;-77
2023/12/05 01:48:23;;;;;;;0.40;0.40;;;5.90;69.00;;;;;;5012911;28;20027;-77
2023/12/05 01:50:50;;;;;;;0.98;0.98;;;5.90;68.90;;;;;;5012739;28;20057;-78
2023/12/05 01:53:16;;;;;;;2.00;1.30;;;5.90;69.00;;;;;;4995716;28;20037;-78
2023/12/05 01:55:42;;;;;;;0.52;0.52;;;5.90;69.00;;;;;;4994360;28;20056;-78
2023/12/05 01:58:08;;;;;;;1.15;1.15;;;5.90;69.00;;;;;;4995062;28;20042;-78
2023/12/05 02:00:37;;;;;;;0.60;0.60;;;5.90;68.90;;;;;;5012804;28;20543;-78
2023/12/05 02:03:02;;;;;;;0.88;0.88;;;5.90;69.00;;;;;;5013152;28;20469;-78
2023/12/05 02:05:29;;;;;;;0.82;0.82;;;6.00;68.90;;;;;;5012415;28;20033;-78
2023/12/05 02:07:55;;;;;;;1.13;1.13;;;6.00;68.90;;;;;;5012820;28;20401;-78
2023/12/05 02:10:20;;;;;;;0.80;0.80;;;6.00;69.00;;;;;;5012792;28;20033;-78
2023/12/05 02:12:46;;;;;;;0.60;0.60;;;6.00;69.00;;;;;;5013068;28;20022;-78
2023/12/05 02:15:12;;;;;;;0.63;0.63;;;6.00;68.90;;;;;;5012501;28;20037;-79
2023/12/05 02:17:52;;;;;;;1.10;1.10;;;6.00;68.90;;;;;;5012774;28;20355;-79
2023/12/05 02:20:26;;;;;;;0.60;0.60;;;6.00;68.90;;;;;;5011085;28;20024;-79
2023/12/05 02:23:00;;;;;;;0.50;0.50;;;6.00;69.00;;;;;;4994699;28;20106;-80
2023/12/05 02:25:50;;;;;;;0.50;0.50;;;6.00;69.00;;;;;;5012200;28;20048;-80
2023/12/05 02:28:17;;;;;;;0.50;0.50;;;6.10;69.00;;;;;;5012493;28;20508;-79
2023/12/05 02:30:43;;;;;;;0.57;0.57;;;6.10;68.90;;;;;;5012087;28;20045;-77
2023/12/05 02:33:09;;;;;;;1.05;1.05;;;6.10;69.10;;;;;;5012099;28;20030;-79
2023/12/05 02:35:34;;;;;;;0.50;0.50;;;6.20;69.10;;;;;;5011940;28;20548;-79
2023/12/05 02:38:11;;;;;;;0.90;0.90;;;6.20;69.00;;;;;;5011763;28;20076;-79
2023/12/05 02:41:00;;;;;;;0.50;0.50;;;6.20;68.80;;;;;;5011841;28;20030;-80
2023/12/05 02:43:36;;;;;;;2.90;1.58;;;6.20;69.00;;;;;;5012244;28;20038;-80
2023/12/05 02:46:04;;;;;;;0.70;0.70;;;6.20;68.90;;;;;;5012314;28;20065;-79
2023/12/05 02:48:29;;;;;;;0.50;0.50;;;6.30;69.00;;;;;;4994071;28;20030;-78
2023/12/05 02:50:55;;;;;;;0.60;0.60;;;6.30;69.00;;;;;;5011821;28;20029;-79
2023/12/05 02:53:20;;;;;;;1.13;1.10;;;6.20;68.80;;;;;;5014601;28;20025;-78
2023/12/05 02:55:49;;;;;;;0.50;0.50;;;6.30;68.90;;;;;;5011415;28;20026;-79
2023/12/05 02:58:14;;;;;;;0.60;0.60;;;6.20;68.80;;;;;;5011693;28;20065;-80
2023/12/05 03:00:41;;;;;;;0.57;0.57;;;6.20;68.80;;;;;;5011624;28;20660;-79
2023/12/05 03:03:07;;;;;;;0.90;0.90;;;6.20;68.80;;;;;;5012530;28;20485;-79
2023/12/05 03:05:32;;;;;;;0.50;0.50;;;6.20;68.80;;;;;;4998223;28;20027;-79
2023/12/05 03:07:58;;;;;;;0.50;0.50;;;6.20;68.80;;;;;;4992479;28;20565;-79
2023/12/05 03:10:23;;;;;;;0.50;0.50;;;6.20;68.70;;;;;;4997492;28;20109;-79
2023/12/05 03:12:49;;;;;;;0.60;0.60;;;6.20;68.80;;;;;;5011940;28;20057;-78
2023/12/05 03:15:14;;;;;;;0.70;0.70;;;6.20;68.90;;;;;;5001655;28;20515;-79
2023/12/05 03:17:40;;;;;;;0.40;0.40;;;6.20;68.90;;;;;;5010747;28;20057;-79
2023/12/05 03:20:07;;;;;;;0.60;0.60;;;6.20;68.90;;;;;;4991675;28;20030;-79
2023/12/05 03:22:32;;;;;;;8.73;2.58;;;6.20;68.90;;;;;;4992345;28;20035;-79
2023/12/05 03:24:58;;;;;;;0.50;0.50;;;6.20;68.80;;;;;;4991790;28;20026;-79
2023/12/05 03:27:23;;;;;;;0.98;0.98;;;6.20;68.90;;;;;;4977169;28;20381;-76
2023/12/05 03:29:49;;;;;;;1.08;1.08;;;6.20;68.90;;;;;;5009807;28;20117;-77
2023/12/05 03:32:15;;;;;;;1.02;1.02;;;6.20;69.00;;;;;;4982777;28;20080;-78
2023/12/05 03:34:41;;;;;;;0.60;0.60;;;6.20;69.10;;;;;;5003260;28;20485;-79
2023/12/05 03:37:06;;;;;;;0.50;0.50;;;6.20;69.00;;;;;;5004764;28;20042;-79
2023/12/05 03:39:32;;;;;;;0.85;0.85;;;6.20;69.00;;;;;;5002573;28;20466;-79
2023/12/05 03:41:57;;;;;;;1.00;1.00;;;6.30;69.00;;;;;;5002649;28;20041;-79
2023/12/05 03:44:23;;;;;;;0.50;0.50;;;6.30;69.10;;;;;;5006368;28;20034;-79
2023/12/05 03:46:48;;;;;;;0.60;0.60;;;6.30;69.00;;;;;;4991735;28;20050;-78
2023/12/05 03:49:14;;;;;;;0.88;0.88;;;6.30;69.00;;;;;;5001080;28;20175;-79
2023/12/05 03:51:39;;;;;;;0.47;0.47;;;6.30;69.00;;;;;;4993627;28;20488;-79
2023/12/05 03:54:05;;;;;;;0.75;0.75;;;6.40;69.00;;;;;;5011045;28;20109;-79
2023/12/05 03:56:30;;;;;;;0.70;0.70;;;6.40;69.10;;;;;;4993364;28;20508;-79
2023/12/05 03:58:56;;;;;;;1.05;1.02;;;6.40;69.10;;;;;;5011068;28;20124;-79
2023/12/05 04:01:22;;;;;;;4.22;2.35;;;6.40;69.00;;;;;;5006883;28;20064;-78
2023/12/05 04:03:48;;;;;;;0.50;0.50;;;6.40;68.90;;;;;;4992020;28;20482;-79
2023/12/05 04:06:21;;;;;;;0.50;0.50;;;6.40;68.90;;;;;;5000091;28;20091;-79
2023/12/05 04:08:47;;;;;;;0.60;0.60;;;6.40;69.00;;;;;;5014142;28;20026;-79
2023/12/05 04:11:12;;;;;;;0.70;0.70;;;6.40;69.00;;;;;;5016195;28;20432;-79
2023/12/05 04:13:38;;;;;;;0.80;0.80;;;6.40;69.00;;;;;;5016079;28;20018;-79
2023/12/05 04:16:05;;;;;;;0.88;0.88;;;6.40;69.00;;;;;;5015778;28;20030;-80
2023/12/05 04:18:31;;;;;;;0.80;0.80;;;6.40;68.90;;;;;;5006070;28;20027;-79
2023/12/05 04:20:56;;;;;;;0.60;0.60;;;6.50;69.00;;;;;;4996274;28;20057;-79
2023/12/05 04:23:22;;;;;;;0.50;0.50;;;6.50;68.90;;;;;;4979475;28;20049;-79
2023/12/05 04:25:47;;;;;;;0.50;0.50;;;6.50;68.90;;;;;;4995689;28;20053;-79
2023/12/05 04:28:13;;;;;;;0.52;0.52;;;6.50;69.00;;;;;;4996201;28;20399;-79
2023/12/05 04:30:39;;;;;;;0.63;0.63;;;6.50;69.00;;;;;;4996475;28;20018;-78
2023/12/05 04:33:04;;;;;;;1.77;1.38;;;6.50;68.90;;;;;;4996346;28;20034;-80
2023/12/05 04:35:30;;;;;;;0.60;0.60;;;6.50;68.90;;;;;;4996123;28;20075;-78
2023/12/05 04:37:55;;;;;;;0.73;0.73;;;6.50;69.00;;;;;;5005167;28;20057;-80
2023/12/05 04:40:21;;;;;;;0.50;0.50;;;6.50;69.00;;;;;;5015729;28;20037;-79
2023/12/05 04:42:46;;;;;;;0.50;0.50;;;6.50;69.10;;;;;;5015949;28;20084;-79
2023/12/05 04:45:12;;;;;;;1.10;1.02;;;6.50;69.10;;;;;;5015412;28;20037;-78
2023/12/05 04:47:37;;;;;;;0.63;0.63;;;6.50;69.00;;;;;;4998094;28;20034;-79
2023/12/05 04:50:03;;;;;;;0.85;0.85;;;6.50;69.00;;;;;;4990639;28;20116;-79
2023/12/05 04:52:28;;;;;;;0.70;0.70;;;6.50;69.00;;;;;;4998109;28;20037;-78
2023/12/05 04:54:54;;;;;;;0.77;0.77;;;6.60;69.10;;;;;;5008056;28;20033;-78
2023/12/05 04:57:20;;;;;;;1.33;1.27;;;6.50;69.10;;;;;;5004653;28;20033;-79
2023/12/05 04:59:45;;;;;;;1.02;1.02;;;6.50;69.10;;;;;;5009303;28;20018;-79
2023/12/05 05:02:13;;;;;;;0.60;0.60;;;6.60;69.00;;;;;;4995988;28;20042;-77
2023/12/05 05:04:39;;;;;;;0.60;0.60;;;6.50;69.10;;;;;;4995233;28;20597;-79
2023/12/05 05:07:05;;;;;;;0.50;0.50;;;6.50;69.10;;;;;;4995896;28;20073;-79
2023/12/05 05:09:30;;;;;;;0.60;0.60;;;6.50;69.20;;;;;;4995775;28;20030;-79
2023/12/05 05:11:56;;;;;;;0.90;0.90;;;6.50;69.20;;;;;;4995933;28;20484;-78
2023/12/05 05:14:22;;;;;;;0.40;0.40;;;6.50;69.10;;;;;;4995556;28;20034;-79
2023/12/05 05:16:47;;;;;;;0.50;0.50;;;6.50;69.20;;;;;;4995555;28;20039;-79
2023/12/05 05:19:13;;;;;;;0.55;0.55;;;6.50;69.20;;;;;;5005310;28;20112;-78
2023/12/05 05:21:38;;;;;;;0.60;0.60;;;6.50;69.20;;;;;;5014653;28;20104;-79
2023/12/05 05:24:04;;;;;;;0.80;0.80;;;6.50;69.20;;;;;;5015394;28;20037;-79
2023/12/05 05:26:30;;;;;;;0.70;0.70;;;6.50;69.20;;;;;;5014822;28;20069;-78
2023/12/05 05:28:55;;;;;;;0.57;0.57;;;6.50;69.20;;;;;;5014945;28;20030;-78
2023/12/05 05:31:21;;;;;;;2.10;1.67;;;6.60;69.40;;;;;;5014754;28;20084;-78
2023/12/05 05:33:46;;;;;;;2.28;1.45;;;6.50;69.40;;;;;;5014694;28;20080;-78
2023/12/05 05:36:15;;;;;;;2.20;1.65;;;6.60;69.30;;;;;;5014730;28;20032;-77
2023/12/05 05:38:41;;;;;;;0.57;0.57;;;6.60;69.30;;;;;;5014424;28;20113;-78
2023/12/05 05:41:07;;;;;;;0.50;0.50;;;6.60;69.30;;;;;;5014587;28;20516;-78
2023/12/05 05:43:33;;;;;;;1.52;0.98;;;6.60;69.30;;;;;;5013601;28;20025;-77
2023/12/05 05:46:00;;;;;;;0.90;0.90;;;6.60;69.30;;;;;;5014790;28;20026;-76
2023/12/05 05:48:25;;;;;;;1.15;1.08;;;6.60;69.30;;;;;;5014417;28;20033;-77
2023/12/05 05:50:51;;;;;;;0.50;0.50;;;6.60;69.30;;;;;;5014270;28;20532;-77
2023/12/05 05:53:16;;;;;;;0.95;0.95;;;6.60;69.40;;;;;;5014486;28;20449;-77
2023/12/05 05:55:42;;;;;;;0.50;0.50;;;6.60;69.40;;;;;;5014421;28;20030;-77
2023/12/05 05:58:10;;;;;;;1.05;1.05;;;6.60;69.30;;;;;;5013452;28;20046;-75
2023/12/05 06:00:36;;;;;;;0.73;0.73;;;6.60;69.30;;;;;;5011886;28;20038;-76
2023/12/05 06:03:03;;;;;;;0.40;0.40;;;6.60;69.10;;;;;;5007745;28;20034;-76
2023/12/05 06:05:29;;;;;;;0.82;0.82;;;6.60;69.20;;;;;;4995059;28;20081;-76
2023/12/05 06:07:55;;;;;;;1.88;1.33;;;6.60;69.30;;;;;;4990678;28;20083;-76
2023/12/05 06:10:21;;;;;;;0.60;0.60;;;6.60;69.30;;;;;;4996858;28;20449;-76
2023/12/05 06:12:46;;;;;;;0.50;0.50;;;6.60;69.30;;;;;;5024832;28;20037;-76
2023/12/05 06:15:12;;;;;;;1.85;1.73;;;6.60;69.30;;;;;;5035409;28;20029;-76
2023/12/05 06:17:37;;;;;;;1.25;1.20;;;6.60;69.40;;;;;;5013938;28;20034;-76
2023/12/05 06:20:05;;;;;;;0.50;0.50;;;6.60;69.40;;;;;;5012043;28;20516;-76
2023/12/05 06:22:31;;;;;;;0.65;0.65;;;6.60;69.40;;;;;;5012114;28;20045;-75
2023/12/05 06:24:57;;;;;;;0.63;0.63;;;6.60;69.50;;;;;;4995071;28;20022;-76
2023/12/05 06:27:22;;;;;;;0.73;0.73;;;6.60;69.50;;;;;;4995049;28;20069;-74
2023/12/05 06:29:48;;;;;;;1.33;1.23;;;6.70;69.60;;;;;;4976777;28;20034;-76
2023/12/05 06:32:13;;;;;;;0.65;0.65;;;6.70;69.40;;;;;;4996684;28;20034;-76
2023/12/05 06:34:39;;;;;;;1.50;1.40;;;6.70;69.50;;;;;;5012149;28;20022;-75
2023/12/05 06:37:04;;;;;;;0.75;0.75;;;6.70;69.50;;;;;;5018481;28;20030;-75
2023/12/05 06:39:30;;;;;;;0.50;0.50;;;6.70;69.50;;;;;;5017077;28;20042;-75
2023/12/05 06:41:55;;;;;;;1.05;1.05;;;6.70;69.50;;;;;;5009621;28;20038;-75
2023/12/05 06:44:21;;;;;;;0.60;0.60;;;6.70;69.50;;;;;;5029645;28;20060;-74
2023/12/05 06:46:46;;;;;;;0.50;0.50;;;6.70;69.60;;;;;;5015369;28;20022;-73
2023/12/05 06:49:12;;;;;;;0.60;0.60;;;6.70;69.50;;;;;;5023266;28;20097;-73
2023/12/05 06:51:39;;;;;;;0.52;0.52;;;6.70;69.60;;;;;;5033439;28;20041;-74
2023/12/05 06:54:05;;;;;;;0.70;0.70;;;6.70;69.60;;;;;;5033190;28;20013;-74
2023/12/05 06:56:30;;;;;;;0.50;0.50;;;6.70;69.60;;;;;;5034284;28;20098;-74
2023/12/05 06:58:56;;;;;;;0.50;0.50;;;6.70;69.60;;;;;;5034771;28;20044;-73
2023/12/05 07:01:22;;;;;;;0.68;0.68;;;6.70;69.60;;;;;;5034503;28;20030;-73
2023/12/05 07:03:47;;;;;;;0.50;0.50;;;6.70;69.50;;;;;;5032501;28;20094;-74
2023/12/05 07:06:13;;;;;;;0.50;0.50;;;6.70;69.60;;;;;;5031459;28;20191;-75
2023/12/05 07:08:39;;;;;;;0.75;0.75;;;6.70;69.70;;;;;;5028822;28;20053;-75
2023/12/05 07:11:08;;;;;;;0.60;0.60;;;6.70;69.70;;;;;;5026071;28;20061;-75
2023/12/05 07:13:33;;;;;;;0.55;0.55;;;6.70;69.70;;;;;;5028999;28;20030;-75
2023/12/05 07:15:59;;;;;;;0.73;0.73;;;6.70;69.70;;;;;;5034155;28;20014;-75
2023/12/05 07:18:25;;;;;;;0.57;0.57;;;6.60;69.70;;;;;;5032873;28;20026;-75
2023/12/05 07:20:50;;;;;;;0.57;0.57;;;6.70;69.70;;;;;;5010821;28;20113;-75
2023/12/05 07:23:16;;;;;;;0.70;0.70;;;6.60;69.70;;;;;;5000324;28;20359;-75
2023/12/05 07:25:42;;;;;;;0.73;0.73;;;6.70;69.80;;;;;;4999852;28;20019;-75
2023/12/05 07:28:08;;;;;;;0.65;0.65;;;6.70;69.90;;;;;;5001402;28;20056;-75
2023/12/05 07:30:34;;;;;;;0.52;0.52;;;6.70;70.00;;;;;;5015900;28;20022;-76
2023/12/05 07:32:59;;;;;;;0.47;0.47;;;6.70;70.10;;;;;;5034467;28;20072;-75
2023/12/05 07:35:25;;;;;;;0.70;0.70;;;6.70;70.00;;;;;;5035020;28;20026;-75
2023/12/05 07:37:50;;;;;;;0.90;0.90;;;6.70;70.10;;;;;;5034058;28;20053;-75
2023/12/05 07:40:16;;;;;;;0.88;0.88;;;6.70;70.00;;;;;;5027957;28;20014;-75
2023/12/05 07:42:41;;;;;;;0.50;0.50;;;6.70;69.90;;;;;;5019139;28;20064;-75
2023/12/05 07:45:07;;;;;;;0.77;0.77;;;6.70;70.00;;;;;;5040044;28;20036;-75
2023/12/05 07:47:33;;;;;;;1.20;1.17;;;6.70;70.00;;;;;;5034993;28;20030;-75
2023/12/05 07:49:59;;;;;;;0.93;0.93;;;6.70;70.00;;;;;;5040520;28;20397;-76
2023/12/05 07:52:25;;;;;;;0.63;0.63;;;6.70;70.10;;;;;;5040056;28;20022;-76
2023/12/05 07:54:50;;;;;;;1.33;1.13;;;6.70;70.10;;;;;;5038785;28;20041;-77
2023/12/05 07:57:21;;;;;;;0.40;0.40;;;6.70;70.10;;;;;;5029812;28;20030;-76
2023/12/05 07:59:50;;;;;;;0.60;0.60;;;6.80;70.10;;;;;;5036794;28;20026;-77
2023/12/05 08:02:17;;;;;;;0.50;0.50;;;6.80;70.10;;;;;;5038857;28;20045;-77
2023/12/05 08:04:43;;;;;;;0.70;0.70;;;6.80;70.10;;;;;;5038084;28;20547;-77
2023/12/05 08:07:08;;;;;;;0.40;0.40;;;6.80;70.20;;;;;;5010570;28;20038;-76
2023/12/05 08:09:34;;;;;;;0.45;0.45;;;6.90;70.20;;;;;;5037767;28;20037;-76
2023/12/05 08:12:00;;;;;;;0.50;0.50;;;6.90;70.20;;;;;;5038530;28;20029;-77
2023/12/05 08:14:25;;;;;;;0.40;0.40;;;7.00;70.30;;;;;;5036856;28;20026;-76
2023/12/05 08:16:51;;;;;;;0.50;0.50;;;7.00;70.20;;;;;;5035843;28;20085;-76
2023/12/05 08:19:16;;;;;;;0.50;0.50;;;7.00;70.10;;;;;;5032252;28;20050;-76
2023/12/05 08:21:42;;;;;;;0.50;0.50;;;7.00;70.10;;;;;;5031838;28;20050;-76
2023/12/05 08:24:07;;;;;;;0.82;0.82;;;7.00;70.10;;;;;;5030355;28;20049;-76
2023/12/05 08:26:33;;;;;;;0.40;0.40;;;7.10;70.10;;;;;;5006431;28;20050;-74
2023/12/05 08:28:58;;;;;;;1.10;1.05;;;7.10;70.20;;;;;;4994274;28;20060;-73
2023/12/05 08:31:24;;;;;;;0.60;0.60;;;7.10;70.20;;;;;;5002591;28;20074;-73
2023/12/05 08:33:50;;;;;;;0.40;0.40;;;7.10;70.30;;;;;;4996735;28;20069;-73
2023/12/05 08:36:15;;;;;;;0.57;0.57;;;7.20;70.30;;;;;;5013365;28;20065;-73
2023/12/05 08:38:41;;;;;;;1.48;1.38;;;7.20;70.40;;;;;;5005256;28;20030;-73
2023/12/05 08:41:07;;;;;;;0.40;0.40;;;7.20;70.40;;;;;;5014137;28;20042;-73
2023/12/05 08:43:32;;;;;;;0.88;0.88;;;7.30;70.40;;;;;;5013930;28;20033;-73
2023/12/05 08:45:58;;;;;;;0.50;0.50;;;7.30;70.40;;;;;;4978978;28;20030;-73
2023/12/05 08:48:24;;;;;;;0.63;0.63;;;7.40;70.50;;;;;;5013679;28;20461;-73
2023/12/05 08:50:49;;;;;;;0.50;0.50;;;7.40;70.40;;;;;;5013951;28;20065;-73
2023/12/05 08:53:15;;;;;;;0.40;0.40;;;7.50;70.40;;;;;;5012079;28;20370;-73
2023/12/05 08:55:42;;;;;;;0.60;0.60;;;7.50;70.40;;;;;;4996155;28;20060;-73
2023/12/05 08:58:07;;;;;;;0.85;0.85;;;7.50;70.30;;;;;;5012617;28;20034;-73
2023/12/05 09:00:34;;;;;;;0.80;0.80;;;7.50;70.20;;;;;;5012473;28;20025;-73
2023/12/05 09:03:00;;;;;;;1.08;1.08;;;7.50;70.30;;;;;;5014226;28;20362;-73
2023/12/05 09:05:25;;;;;;;0.47;0.47;;;7.60;70.40;;;;;;5013509;28;20108;-73
2023/12/05 09:07:51;;;;;;;0.50;0.50;;;7.60;70.40;;;;;;5013377;28;20030;-73
2023/12/05 09:10:16;;;;;;;0.93;0.93;;;7.70;70.40;;;;;;5013622;28;20030;-73
2023/12/05 09:12:42;;;;;;;1.17;1.13;;;7.70;70.30;;;;;;5012226;28;20049;-73
2023/12/05 09:15:08;;;;;;;0.82;0.82;;;7.80;70.40;;;;;;5002572;28;20118;-73
2023/12/05 09:17:34;;;;;;;0.50;0.50;;;7.80;70.40;;;;;;5011730;28;20053;-73
2023/12/05 09:20:00;;;;;;;0.60;0.60;;;7.80;70.40;;;;;;5013520;28;20057;-73
2023/12/05 09:22:25;;;;;;;1.10;1.08;;;7.90;70.40;;;;;;5013107;28;20477;-73
2023/12/05 09:24:51;;;;;;;1.58;1.48;;;7.90;70.40;;;;;;4994540;28;20034;-73
2023/12/05 09:27:16;;;;;;;0.70;0.70;;;7.90;70.20;;;;;;4993772;28;20073;-73
2023/12/05 09:29:42;;;;;;;0.50;0.50;;;8.00;70.20;;;;;;5005861;28;20117;-73
2023/12/05 09:32:07;;;;;;;0.52;0.52;;;8.00;70.10;;;;;;5013275;28;20036;-73
2023/12/05 09:34:33;;;;;;;0.50;0.50;;;8.00;70.00;;;;;;5011767;28;20104;-73
2023/12/05 09:36:58;;;;;;;0.80;0.80;;;8.00;70.00;;;;;;5013585;28;20061;-73
2023/12/05 09:39:24;;;;;;;0.68;0.68;;;8.00;69.90;;;;;;4993819;28;20140;-73
2023/12/05 09:41:54;;;;;;;0.60;0.60;;;8.00;69.80;;;;;;5013022;28;20088;-73
2023/12/05 09:44:23;;;;;;;0.60;0.60;;;8.00;69.90;;;;;;5011734;28;20264;-73
2023/12/05 09:46:57;;;;;;;1.15;1.13;;;8.00;70.00;;;;;;5012975;28;20280;-74
2023/12/05 09:49:27;;;;;;;0.60;0.60;;;8.00;70.00;;;;;;5008237;28;20041;-73
2023/12/05 09:51:57;;;;;;;0.50;0.50;;;8.00;69.90;;;;;;5012938;28;20044;-72
2023/12/05 09:54:25;;;;;;;0.50;0.50;;;8.00;70.00;;;;;;5012127;28;20034;-72
2023/12/05 09:56:55;;;;;;;0.60;0.60;;;8.00;70.10;;;;;;5010912;28;20066;-73
2023/12/05 09:59:21;;;;;;;0.93;0.93;;;8.00;70.00;;;;;;5012438;28;20052;-72
2023/12/05 10:01:47;;;;;;;0.65;0.65;;;8.00;70.10;;;;;;5013064;28;20088;-71
2023/12/05 10:04:17;;;;;;;0.40;0.40;;;8.00;70.20;;;;;;4976778;28;20038;-71
2023/12/05 10:06:44;;;;;;;0.98;0.75;;;8.10;70.00;;;;;;5010059;28;20395;-71
2023/12/05 10:09:11;;;;;;;0.50;0.50;;;8.10;70.10;;;;;;4994603;28;20033;-71
2023/12/05 10:11:38;;;;;;;0.70;0.70;;;8.10;70.30;;;;;;5011115;28;20026;-71
2023/12/05 10:14:03;;;;;;;0.50;0.50;;;8.20;70.20;;;;;;5011676;28;20026;-71
2023/12/05 10:16:31;;;;;;;0.73;0.73;;;8.20;70.10;;;;;;5011282;28;20033;-70
2023/12/05 10:18:57;;;;;;;0.47;0.47;;;8.20;70.10;;;;;;5011561;28;20457;-71
2023/12/05 10:21:22;;;;;;;0.60;0.60;;;8.20;70.20;;;;;;4998159;28;20031;-70
2023/12/05 10:23:49;;;;;;;0.80;0.80;;;8.30;70.30;;;;;;4975128;28;20390;-71
2023/12/05 10:26:14;;;;;;;4.78;1.55;;;8.30;70.40;;;;;;5001411;28;20468;-71
2023/12/05 10:28:51;;;;;;;0.50;0.50;;;8.40;70.30;;;;;;5008720;28;20139;-71
2023/12/05 10:31:18;;;;;;;0.50;0.50;;;8.50;70.40;;;;;;5002118;28;20674;-71
2023/12/05 10:33:44;;;;;;;0.60;0.60;;;8.50;70.30;;;;;;4998503;28;20026;-71
2023/12/05 10:36:13;;;;;;;1.45;1.02;;;8.60;70.40;;;;;;4995676;28;20042;-71
2023/12/05 10:38:42;;;;;;;0.60;0.60;;;8.60;70.50;;;;;;5011857;28;20026;-71
2023/12/05 10:41:08;;;;;;;0.82;0.82;;;8.70;70.30;;;;;;5006540;28;20038;-71
2023/12/05 10:43:33;;;;;;;0.40;0.40;;;8.80;70.50;;;;;;4992231;28;20371;-72
2023/12/05 10:46:03;;;;;;;0.50;0.50;;;8.80;70.60;;;;;;4992260;28;20027;-72
2023/12/05 10:48:29;;;;;;;0.80;0.80;;;8.90;70.60;;;;;;5011969;28;20061;-72
2023/12/05 10:50:57;;;;;;;1.40;0.73;;;9.00;70.60;;;;;;5012409;28;20034;-72
2023/12/05 10:53:25;;;;;;;0.50;0.50;;;9.00;70.50;;;;;;5000961;28;20375;-72
2023/12/05 10:55:50;;;;;;;0.40;0.40;;;9.10;70.60;;;;;;5000823;28;20038;-72
2023/12/05 10:58:16;;;;;;;0.65;0.65;;;9.20;70.60;;;;;;5011305;28;20396;-72
2023/12/05 11:00:43;;;;;;;0.43;0.43;;;9.20;70.50;;;;;;5012317;28;20033;-72
2023/12/05 11:03:09;;;;;;;0.77;0.77;;;9.30;70.70;;;;;;5011094;28;20097;-72
2023/12/05 11:05:35;;;;;;;0.60;0.60;;;9.30;70.70;;;;;;5011579;28;20037;-72
2023/12/05 11:08:02;;;;;;;0.70;0.70;;;9.40;70.70;;;;;;5012499;28;20042;-73
2023/12/05 11:10:28;;;;;;;0.40;0.40;;;9.50;70.70;;;;;;5010872;28;20018;-72
2023/12/05 11:12:56;;;;;;;0.50;0.50;;;9.50;70.70;;;;;;4994380;28;20065;-72
2023/12/05 11:15:41;;;;;;;0.47;0.47;;;9.60;70.60;;;;;;5009210;28;20021;-72
2023/12/05 11:18:21;;;;;;;0.50;0.50;;;9.70;70.60;;;;;;5011678;28;20038;-73
2023/12/05 11:21:06;;;;;;;0.50;0.50;;;9.80;70.50;;;;;;4980062;28;20035;-73
2023/12/05 11:23:49;;;;;;;0.70;0.70;;;9.80;70.30;;;;;;4975289;28;20045;-73
2023/12/05 11:26:56;;;;;;;0.80;0.80;;;9.80;70.40;;;;;;5000750;28;20038;-73
2023/12/05 11:29:33;;;;;;;0.50;0.50;;;9.80;70.40;;;;;;5011430;28;20069;-72
2023/12/05 11:32:12;;;;;;;0.50;0.50;;;9.80;70.40;;;;;;5012217;28;20496;-72
2023/12/05 11:34:59;;;;;;;0.60;0.60;;;9.80;70.40;;;;;;5011749;28;20531;-72
2023/12/05 11:37:36;;;;;;;0.70;0.70;;;9.80;70.60;;;;;;5012312;28;20029;-72
2023/12/05 11:40:03;;;;;;;0.90;0.80;;;9.80;70.60;;;;;;5013397;28;20413;-73
2023/12/05 11:42:30;;;;;;;0.85;0.75;;;9.80;70.50;;;;;;5012945;28;20481;-73
2023/12/05 11:44:56;;;;;;;0.47;0.47;;;9.80;70.60;;;;;;5013196;28;20022;-73
2023/12/05 11:47:28;;;;;;;0.82;0.82;;;9.80;70.40;;;;;;4993845;28;20045;-73
2023/12/05 11:49:58;;;;;;;0.85;0.85;;;9.80;70.50;;;;;;4996944;28;20072;-73
2023/12/05 11:52:27;;;;;;;0.80;0.80;;;9.80;70.70;;;;;;4997415;28;20036;-73
2023/12/05 11:54:53;;;;;;;0.50;0.50;;;9.90;70.60;;;;;;5017962;28;20030;-73
2023/12/05 11:57:23;;;;;;;0.93;0.93;;;10.00;70.60;;;;;;5016205;28;20034;-71
2023/12/05 11:59:54;;;;;;;0.52;0.52;;;10.00;70.70;;;;;;5011005;28;20088;-71
2023/12/05 12:02:31;;;;;;;1.10;1.10;;;10.10;70.90;;;;;;4993641;28;20485;-71
2023/12/05 12:05:05;;;;;;;0.95;0.95;;;10.20;71.00;;;;;;5009197;28;20049;-71
2023/12/05 12:07:44;;;;;;;0.60;0.60;;;10.30;71.10;;;;;;5011550;28;20046;-71
2023/12/05 12:10:09;;;;;;;0.50;0.50;;;10.40;71.40;;;;;;4992570;28;20401;-72
2023/12/05 12:12:35;;;;;;;0.80;0.80;;;10.50;71.60;;;;;;5011220;28;20034;-72
2023/12/05 12:15:01;;;;;;;0.50;0.50;;;10.60;71.40;;;;;;5006237;28;20101;-71
2023/12/05 12:17:27;;;;;;;0.57;0.57;;;10.70;71.40;;;;;;5011111;28;20148;-71
2023/12/05 12:19:54;;;;;;;0.55;0.55;;;10.80;71.20;;;;;;5010522;28;20026;-72
2023/12/05 12:22:20;;;;;;;0.52;0.52;;;10.90;71.20;;;;;;4991624;28;20048;-72
2023/12/05 12:24:46;;;;;;;0.50;0.50;;;11.00;70.90;;;;;;5010655;28;20113;-71
2023/12/05 12:27:11;;;;;;;0.50;0.50;;;11.00;71.00;;;;;;4999365;28;20088;-72
2023/12/05 12:29:37;;;;;;;0.60;0.60;;;10.90;70.60;;;;;;4993891;28;20070;-71
2023/12/05 12:32:12;;;;;;;0.90;0.90;;;10.90;70.60;;;;;;4994848;28;20026;-72
2023/12/05 12:34:41;;;;;;;1.25;1.17;;;10.90;70.50;;;;;;4993931;28;20102;-70
2023/12/05 12:37:11;;;;;;;0.52;0.52;;;10.80;70.40;;;;;;4993705;28;20028;-71
2023/12/05 12:39:37;;;;;;;0.60;0.60;;;10.80;70.40;;;;;;4981854;28;20030;-69
2023/12/05 12:42:03;;;;;;;0.50;0.50;;;10.80;70.30;;;;;;4994816;28;20157;-70
2023/12/05 12:44:30;;;;;;;0.45;0.45;;;10.80;70.30;;;;;;4994858;28;20022;-70
2023/12/05 12:46:56;;;;;;;1.45;1.35;;;10.70;70.30;;;;;;5008819;28;20045;-71
2023/12/05 12:49:22;;;;;;;2.15;1.95;;;10.70;70.60;;;;;;5012233;28;20432;-71
2023/12/05 12:51:49;;;;;;;0.47;0.47;;;10.70;70.60;;;;;;5014072;28;20112;-69
2023/12/05 12:54:16;;;;;;;0.63;0.63;;;10.70;70.70;;;;;;4994183;28;20489;-70